SKG weather

Thessaloniki Macedonia International Airport
Thessaloniki, Thessaloniki, Greece

Public forecast

Using degrees Celsius for public forecast. Weather courtesy of forecast.io.

Current aviation weather report (METAR) for Thessaloniki Macedonia International Airport

Retrieved 2019/11/22 04:20 UTC (0 seconds ago):

LGTS 220420Z 31008KT 9999 -RA FEW020TCU BKN025 15/13 Q1015 NOSIG

Aviation forecast (TAF) for Thessaloniki Macedonia International Airport

Retrieved 2019-11-22 00:12 UTC (4 hours ago):

TAF LGTS 212300Z 2200/2224 35010KT 9999 FEW010 BKN030 TEMPO 2200/2212 5000 RA FEW008 BKN025 PROB40 TEMPO 2201/2206 3000 TSRA SCT008 FEW015CB BKN020 TEMPO 2206/2212 33020G30KT BECMG 2209/2211 FEW030 BECMG 2218/2220 FEW010 BKN030